Time;durP1;ratioP1;P1;durP2;ratioP2;P2;SDS_P1;SDS_P2;PMS_P1;PMS_P2;Temp;Humidity;BMP_temperature;BMP_pressure;BME280_temperature;BME280_humidity;BME280_pressure;Samples;Min_cycle;Max_cycle;Signal;HPM_P1;HPM_P2
2022/03/17 00:01:32;;;;;;;24.48;21.83;;;10.60;99.90;;;;;;5034442;28;20049;-57
2022/03/17 00:03:58;;;;;;;31.95;22.73;;;10.60;99.90;;;;;;5038728;28;20056;-58
2022/03/17 00:06:24;;;;;;;28.30;22.95;;;10.70;99.90;;;;;;5039463;28;20577;-57
2022/03/17 00:08:51;;;;;;;28.30;22.58;;;10.60;99.90;;;;;;5038501;28;20500;-58
2022/03/17 00:11:17;;;;;;;27.17;21.88;;;10.70;99.90;;;;;;5038258;28;20080;-58
2022/03/17 00:13:43;;;;;;;30.38;24.83;;;10.60;99.90;;;;;;5049645;28;20385;-58
2022/03/17 00:16:10;;;;;;;28.63;22.83;;;10.60;99.90;;;;;;5040695;28;20488;-58
2022/03/17 00:18:37;;;;;;;29.33;23.98;;;10.60;99.90;;;;;;5032885;28;20038;-58
2022/03/17 00:21:03;;;;;;;29.20;22.70;;;10.50;99.90;;;;;;5037793;28;20049;-58
2022/03/17 00:23:30;;;;;;;28.08;24.15;;;10.50;99.90;;;;;;5034321;28;20059;-58
2022/03/17 00:25:56;;;;;;;28.33;21.92;;;10.50;99.90;;;;;;5035108;28;20110;-57
2022/03/17 00:28:22;;;;;;;28.20;22.40;;;10.50;99.90;;;;;;5030325;28;20404;-58
2022/03/17 00:30:52;;;;;;;31.20;24.38;;;10.50;99.90;;;;;;5046245;28;20056;-58
2022/03/17 00:33:18;;;;;;;30.48;23.80;;;10.50;99.90;;;;;;5030702;28;20132;-58
2022/03/17 00:35:44;;;;;;;32.25;25.50;;;10.50;99.90;;;;;;5045941;28;20559;-58
2022/03/17 00:38:14;;;;;;;31.40;22.20;;;10.50;99.90;;;;;;5010386;28;20104;-58
2022/03/17 00:40:42;;;;;;;28.55;22.77;;;10.50;99.90;;;;;;5031454;28;20056;-58
2022/03/17 00:43:11;;;;;;;29.98;23.67;;;10.50;99.90;;;;;;5044909;28;20548;-58
2022/03/17 00:45:38;;;;;;;27.85;21.50;;;10.40;99.90;;;;;;5029685;28;20049;-57
2022/03/17 00:48:05;;;;;;;29.27;24.17;;;10.40;99.90;;;;;;5030588;28;20500;-58
2022/03/17 00:50:32;;;;;;;30.42;24.55;;;10.40;99.90;;;;;;5028957;28;20595;-58
2022/03/17 00:52:59;;;;;;;27.90;23.95;;;10.40;99.90;;;;;;5033502;28;20457;-58
2022/03/17 00:55:25;;;;;;;33.80;23.25;;;10.40;99.90;;;;;;5032814;28;20056;-58
2022/03/17 00:57:51;;;;;;;31.75;23.58;;;10.40;99.90;;;;;;5034255;28;20452;-57
2022/03/17 01:00:20;;;;;;;31.08;24.50;;;10.40;99.90;;;;;;5034187;28;20068;-58
2022/03/17 01:02:53;;;;;;;30.10;24.05;;;10.40;99.90;;;;;;5030566;28;20045;-58
2022/03/17 01:05:20;;;;;;;28.90;22.98;;;10.40;99.90;;;;;;5032801;28;20575;-58
2022/03/17 01:07:47;;;;;;;30.23;24.52;;;10.40;99.90;;;;;;5036190;28;20768;-58
2022/03/17 01:10:16;;;;;;;29.52;24.48;;;10.40;99.90;;;;;;5051191;28;20060;-58
2022/03/17 01:12:46;;;;;;;32.05;24.95;;;10.40;99.90;;;;;;5033398;28;20467;-58
2022/03/17 01:15:14;;;;;;;32.47;24.92;;;10.40;99.90;;;;;;5031021;28;20045;-58
2022/03/17 01:17:40;;;;;;;28.65;24.48;;;10.40;99.90;;;;;;5032363;28;20049;-58
2022/03/17 01:20:08;;;;;;;31.98;25.38;;;10.30;99.90;;;;;;5029742;28;20128;-58
2022/03/17 01:22:35;;;;;;;30.35;24.60;;;10.40;99.90;;;;;;5030624;28;20051;-58
2022/03/17 01:25:01;;;;;;;28.45;24.15;;;10.30;99.90;;;;;;5033153;28;20514;-56
2022/03/17 01:27:29;;;;;;;32.50;25.25;;;10.40;99.90;;;;;;5053241;28;20045;-56
2022/03/17 01:29:56;;;;;;;30.70;25.05;;;10.40;99.90;;;;;;5041638;28;20049;-57
2022/03/17 01:32:22;;;;;;;31.15;25.20;;;10.40;99.90;;;;;;4999285;28;20080;-57
2022/03/17 01:34:49;;;;;;;29.65;26.45;;;10.40;99.90;;;;;;5045166;28;20382;-57
2022/03/17 01:37:16;;;;;;;32.50;27.25;;;10.40;99.90;;;;;;5032988;28;20100;-57
2022/03/17 01:39:42;;;;;;;33.13;25.17;;;10.40;99.90;;;;;;5042173;28;20045;-57
2022/03/17 01:42:10;;;;;;;29.58;25.40;;;10.40;99.90;;;;;;5041083;28;20041;-57
2022/03/17 01:44:38;;;;;;;31.23;26.77;;;10.30;99.90;;;;;;5024786;28;20532;-57
2022/03/17 01:49:50;;;;;;;29.63;26.23;;;10.30;99.90;;;;;;5038215;28;20056;-58
2022/03/17 01:52:16;;;;;;;29.02;25.35;;;10.30;99.90;;;;;;5041304;28;20056;-58
2022/03/17 01:54:43;;;;;;;31.63;25.55;;;10.30;99.90;;;;;;5036523;28;20049;-58
2022/03/17 01:57:10;;;;;;;30.25;25.80;;;10.30;99.90;;;;;;4999379;28;20052;-58
2022/03/17 01:59:38;;;;;;;30.50;25.30;;;10.30;99.90;;;;;;5033903;28;20119;-58
2022/03/17 02:02:14;;;;;;;33.20;25.73;;;10.40;99.90;;;;;;5040553;28;20595;-58
2022/03/17 02:04:41;;;;;;;30.48;25.55;;;10.30;99.90;;;;;;5041738;28;20064;-58
2022/03/17 02:07:08;;;;;;;32.17;27.13;;;10.30;99.90;;;;;;5043296;28;20049;-58
2022/03/17 02:09:36;;;;;;;31.08;27.02;;;10.20;99.90;;;;;;5040546;28;20064;-57
2022/03/17 02:14:49;;;;;;;34.00;27.45;;;10.10;99.90;;;;;;5041952;28;20515;-57
2022/03/17 02:17:15;;;;;;;32.20;27.45;;;10.10;99.90;;;;;;5041652;28;20037;-57
2022/03/17 02:19:42;;;;;;;33.85;27.63;;;10.10;99.90;;;;;;5026656;28;20050;-57
2022/03/17 02:22:12;;;;;;;33.55;27.80;;;10.00;99.90;;;;;;5042398;28;20048;-57
2022/03/17 02:27:28;;;;;;;35.03;27.90;;;10.00;99.90;;;;;;5034981;28;20053;-58
2022/03/17 02:29:54;;;;;;;31.15;27.25;;;10.00;99.90;;;;;;5038105;28;20068;-58
2022/03/17 02:32:20;;;;;;;33.72;27.33;;;10.00;99.90;;;;;;5035261;28;20053;-57
2022/03/17 02:34:47;;;;;;;33.38;27.85;;;10.00;99.90;;;;;;5041305;28;20635;-57
2022/03/17 02:37:15;;;;;;;31.27;25.63;;;10.00;99.90;;;;;;5037653;28;20054;-58
2022/03/17 02:39:41;;;;;;;32.15;27.27;;;10.00;99.90;;;;;;5037346;28;20587;-57
2022/03/17 02:42:08;;;;;;;31.38;26.90;;;10.00;99.90;;;;;;5054079;28;20558;-57
2022/03/17 02:44:34;;;;;;;33.30;27.00;;;10.10;99.90;;;;;;5042511;28;20490;-58
2022/03/17 02:47:00;;;;;;;34.85;28.33;;;10.10;99.90;;;;;;5040065;28;20590;-58
2022/03/17 02:49:26;;;;;;;35.45;28.77;;;10.10;99.90;;;;;;5031211;28;20637;-58
2022/03/17 02:51:53;;;;;;;31.45;27.08;;;10.10;99.90;;;;;;5030716;28;20045;-57
2022/03/17 02:54:19;;;;;;;32.08;27.85;;;10.10;99.90;;;;;;5032540;28;20041;-57
2022/03/17 02:56:46;;;;;;;31.50;27.85;;;10.10;99.90;;;;;;5007754;28;20049;-56
2022/03/17 02:59:12;;;;;;;33.10;27.80;;;10.10;99.90;;;;;;5032453;28;20056;-57
2022/03/17 03:01:39;;;;;;;30.88;27.45;;;10.10;99.90;;;;;;5034248;28;20095;-57
2022/03/17 03:04:06;;;;;;;31.58;27.92;;;10.10;99.90;;;;;;5046365;28;20041;-57
2022/03/17 03:06:32;;;;;;;31.75;28.25;;;10.10;99.90;;;;;;5032748;28;20049;-58
2022/03/17 03:08:59;;;;;;;31.35;27.75;;;10.10;99.90;;;;;;5033627;28;20057;-58
2022/03/17 03:11:25;;;;;;;33.65;29.98;;;10.10;99.90;;;;;;5033418;28;20505;-58
2022/03/17 03:13:51;;;;;;;31.88;27.88;;;10.10;99.90;;;;;;5030034;28;20049;-58
2022/03/17 03:16:17;;;;;;;31.67;28.20;;;10.10;99.90;;;;;;5045446;28;20139;-57
2022/03/17 03:18:44;;;;;;;33.15;28.05;;;10.10;99.90;;;;;;5030532;28;20076;-58
2022/03/17 03:21:10;;;;;;;32.67;28.92;;;10.00;99.90;;;;;;5029714;28;20048;-56
2022/03/17 03:23:37;;;;;;;33.75;29.25;;;10.10;99.90;;;;;;5032536;28;20633;-57
2022/03/17 03:26:03;;;;;;;32.40;28.63;;;10.10;99.90;;;;;;5029036;28;20420;-57
2022/03/17 03:28:29;;;;;;;34.85;30.27;;;10.10;99.90;;;;;;5014471;28;20091;-57
2022/03/17 03:30:55;;;;;;;30.67;27.38;;;10.20;99.90;;;;;;5038264;28;20044;-57
2022/03/17 03:33:21;;;;;;;31.80;28.42;;;10.30;99.90;;;;;;5027254;28;20143;-57
2022/03/17 03:38:32;;;;;;;31.88;28.42;;;10.40;99.90;;;;;;5032113;28;20054;-57
2022/03/17 03:40:59;;;;;;;31.92;28.60;;;10.40;99.90;;;;;;5024673;28;20506;-57
2022/03/17 03:43:25;;;;;;;31.92;28.67;;;10.40;99.90;;;;;;5031855;28;20037;-57
2022/03/17 03:45:51;;;;;;;31.77;28.48;;;10.50;99.90;;;;;;5034850;28;20122;-57
2022/03/17 03:48:18;;;;;;;31.88;28.48;;;10.60;99.90;;;;;;5040216;28;20118;-57
2022/03/17 03:50:46;;;;;;;33.28;29.52;;;10.60;99.90;;;;;;5034773;28;20055;-57
2022/03/17 03:53:12;;;;;;;32.05;28.50;;;10.60;99.90;;;;;;5033128;28;20450;-56
2022/03/17 03:55:39;;;;;;;31.77;28.00;;;10.60;99.90;;;;;;5027335;28;20053;-56
2022/03/17 03:58:05;;;;;;;33.28;28.90;;;10.60;99.90;;;;;;5054783;28;20531;-56
2022/03/17 04:02:57;;;;;;;33.17;29.63;;;10.60;99.90;;;;;;5047058;28;20060;-58
2022/03/17 04:05:34;;;;;;;31.95;28.52;;;10.60;99.90;;;;;;5050756;28;20051;-57
2022/03/17 04:08:01;;;;;;;35.42;29.92;;;10.60;99.90;;;;;;5026580;28;20102;-58
2022/03/17 04:10:27;;;;;;;36.00;30.52;;;10.60;99.90;;;;;;5029539;28;20099;-57
2022/03/17 04:12:54;;;;;;;33.95;30.35;;;10.60;99.90;;;;;;5035817;28;20053;-58
2022/03/17 04:15:20;;;;;;;34.22;30.73;;;10.60;99.90;;;;;;5034429;28;20084;-57
2022/03/17 04:17:49;;;;;;;34.28;30.67;;;10.60;99.90;;;;;;5046869;28;20049;-58
2022/03/17 04:20:15;;;;;;;35.75;31.95;;;10.60;99.90;;;;;;5031722;28;20037;-57
2022/03/17 04:22:41;;;;;;;39.30;35.05;;;10.50;99.90;;;;;;5039066;28;20550;-58
2022/03/17 04:25:08;;;;;;;40.35;35.92;;;10.40;99.90;;;;;;5038122;28;20118;-58
2022/03/17 04:27:34;;;;;;;38.00;33.90;;;10.40;99.90;;;;;;5044259;28;20447;-57
2022/03/17 04:30:00;;;;;;;38.55;33.72;;;10.30;99.90;;;;;;5042879;28;20033;-58
2022/03/17 04:32:26;;;;;;;39.72;35.20;;;10.30;99.90;;;;;;5054400;28;20136;-57
2022/03/17 04:34:52;;;;;;;42.70;38.10;;;10.20;99.90;;;;;;5034709;28;20139;-57
2022/03/17 04:37:18;;;;;;;41.75;37.35;;;10.20;99.90;;;;;;5029869;28;20049;-57
2022/03/17 04:39:44;;;;;;;47.30;40.55;;;10.10;99.90;;;;;;5018941;28;20048;-57
2022/03/17 04:42:11;;;;;;;49.13;41.70;;;10.10;99.90;;;;;;5042902;28;20084;-57
2022/03/17 04:44:37;;;;;;;52.53;43.58;;;10.00;99.90;;;;;;5043437;28;20377;-58
2022/03/17 04:47:04;;;;;;;57.03;46.63;;;10.00;99.90;;;;;;5037252;28;20041;-57
2022/03/17 04:49:30;;;;;;;58.83;48.65;;;9.90;99.90;;;;;;5056103;28;20107;-57
2022/03/17 04:51:56;;;;;;;63.40;49.45;;;9.80;99.90;;;;;;5040162;28;20045;-57
2022/03/17 04:54:22;;;;;;;63.92;49.97;;;9.70;99.90;;;;;;5044580;28;20060;-57
2022/03/17 04:56:48;;;;;;;67.85;51.20;;;9.70;99.90;;;;;;5028855;28;20126;-57
2022/03/17 04:59:14;;;;;;;66.55;52.85;;;9.60;99.90;;;;;;5028976;28;20433;-58
2022/03/17 05:01:40;;;;;;;76.65;54.50;;;9.60;99.90;;;;;;5037030;28;20433;-59
2022/03/17 05:04:06;;;;;;;75.85;55.65;;;9.60;99.90;;;;;;5054147;28;20033;-56
2022/03/17 05:06:33;;;;;;;79.40;56.13;;;9.50;99.90;;;;;;5038732;28;20083;-56
2022/03/17 05:08:59;;;;;;;80.25;56.70;;;9.60;99.90;;;;;;5024849;28;20081;-56
2022/03/17 05:11:25;;;;;;;77.55;56.00;;;9.50;99.90;;;;;;5034869;28;20505;-56
2022/03/17 05:13:52;;;;;;;75.80;53.72;;;9.60;99.90;;;;;;5040110;28;20053;-56
2022/03/17 05:16:18;;;;;;;76.40;53.13;;;9.60;99.90;;;;;;5020955;28;20447;-58
2022/03/17 05:18:44;;;;;;;62.92;45.35;;;9.60;99.90;;;;;;5041901;28;20055;-55
2022/03/17 05:21:10;;;;;;;41.33;29.55;;;9.60;99.90;;;;;;5049859;28;20397;-55
2022/03/17 05:23:38;;;;;;;26.58;22.50;;;9.50;99.90;;;;;;5042875;28;20250;-55
2022/03/17 05:26:04;;;;;;;20.92;16.17;;;9.40;99.90;;;;;;5041098;28;20462;-56
2022/03/17 05:28:30;;;;;;;17.60;14.52;;;9.30;99.90;;;;;;5035920;28;20102;-57
2022/03/17 05:30:57;;;;;;;14.80;12.13;;;9.10;99.90;;;;;;5042129;28;20060;-57
2022/03/17 05:33:23;;;;;;;13.05;11.75;;;9.00;99.90;;;;;;5036369;28;20049;-57
2022/03/17 05:35:49;;;;;;;11.85;10.57;;;8.80;99.90;;;;;;5033188;28;20049;-57
2022/03/17 05:38:15;;;;;;;11.23;9.82;;;8.70;99.90;;;;;;5035263;28;20052;-57
2022/03/17 05:40:42;;;;;;;12.10;10.65;;;8.60;99.90;;;;;;5037658;28;20077;-57
2022/03/17 05:43:10;;;;;;;13.02;10.90;;;8.50;99.90;;;;;;5057899;28;20041;-57
2022/03/17 05:45:37;;;;;;;13.32;11.85;;;8.40;99.90;;;;;;5055467;28;20053;-57
2022/03/17 05:48:06;;;;;;;13.35;11.85;;;8.30;99.90;;;;;;5042743;28;20608;-57
2022/03/17 05:50:41;;;;;;;16.40;13.32;;;8.30;99.90;;;;;;5059080;28;20448;-56
2022/03/17 05:53:08;;;;;;;17.58;12.93;;;8.20;99.90;;;;;;5040663;28;20698;-55
2022/03/17 05:55:35;;;;;;;17.63;13.85;;;8.10;99.90;;;;;;5042762;28;20049;-55
2022/03/17 05:58:01;;;;;;;18.25;13.75;;;8.10;99.90;;;;;;5041986;28;20049;-56
2022/03/17 06:00:29;;;;;;;18.13;13.82;;;8.10;99.90;;;;;;5039251;28;20497;-56
2022/03/17 06:02:57;;;;;;;20.42;14.50;;;8.10;99.90;;;;;;5026128;28;20053;-56
2022/03/17 06:05:23;;;;;;;18.42;14.07;;;8.10;99.90;;;;;;5042598;28;20132;-55
2022/03/17 06:07:51;;;;;;;24.42;14.25;;;8.00;99.90;;;;;;5024910;28;20110;-56
2022/03/17 06:10:23;;;;;;;19.33;14.43;;;8.00;99.90;;;;;;5042712;28;20053;-56
2022/03/17 06:12:51;;;;;;;15.98;12.98;;;8.00;99.90;;;;;;5043304;28;20041;-56
2022/03/17 06:15:19;;;;;;;19.65;13.57;;;8.00;99.90;;;;;;5042487;28;20056;-57
2022/03/17 06:17:48;;;;;;;17.70;13.57;;;8.00;99.90;;;;;;5041433;28;20038;-57
2022/03/17 06:20:20;;;;;;;18.70;13.75;;;8.00;99.90;;;;;;5041462;28;20671;-58
2022/03/17 06:22:48;;;;;;;16.75;13.85;;;8.00;99.90;;;;;;5050308;28;20041;-57
2022/03/17 06:25:16;;;;;;;18.48;13.95;;;8.00;99.90;;;;;;5041446;28;20049;-57
2022/03/17 06:27:45;;;;;;;20.50;13.27;;;8.00;99.90;;;;;;5024668;28;20136;-57
2022/03/17 06:30:19;;;;;;;19.98;14.95;;;8.00;99.90;;;;;;5039970;28;20041;-57
2022/03/17 06:32:46;;;;;;;18.42;13.63;;;8.00;99.90;;;;;;5040707;28;20722;-57
2022/03/17 06:35:17;;;;;;;17.25;12.30;;;8.00;99.90;;;;;;5038922;28;20180;-57
2022/03/17 06:37:49;;;;;;;20.55;13.20;;;8.00;99.90;;;;;;5042108;28;20512;-57
2022/03/17 06:40:16;;;;;;;20.50;11.52;;;8.00;99.90;;;;;;5042934;28;20044;-57
2022/03/17 06:42:44;;;;;;;16.90;10.95;;;7.90;99.90;;;;;;5037683;28;20057;-57
2022/03/17 06:45:10;;;;;;;18.77;11.70;;;7.90;99.90;;;;;;5042405;28;20083;-57
2022/03/17 06:47:37;;;;;;;18.35;9.98;;;8.00;99.90;;;;;;5042279;28;20451;-57
2022/03/17 06:50:04;;;;;;;24.25;10.60;;;8.00;99.90;;;;;;5041579;28;20493;-57
2022/03/17 06:52:30;;;;;;;17.13;10.00;;;8.00;99.90;;;;;;5041182;28;20052;-58
2022/03/17 06:54:57;;;;;;;16.50;10.60;;;8.00;99.90;;;;;;5041253;28;20049;-57
2022/03/17 06:57:24;;;;;;;15.95;9.95;;;8.00;99.90;;;;;;5042673;28;20052;-57
2022/03/17 06:59:51;;;;;;;18.60;8.98;;;8.00;99.90;;;;;;5054792;28;20107;-57
2022/03/17 07:02:17;;;;;;;15.45;8.40;;;7.90;99.90;;;;;;5057395;28;20052;-57
2022/03/17 07:04:44;;;;;;;18.80;8.30;;;7.90;99.90;;;;;;5055816;28;20041;-58
2022/03/17 07:07:10;;;;;;;17.40;7.32;;;7.90;99.90;;;;;;5039832;28;20045;-58
2022/03/17 07:09:37;;;;;;;16.08;7.18;;;7.90;99.90;;;;;;5041644;28;20049;-58
2022/03/17 07:12:04;;;;;;;11.48;5.43;;;7.90;99.90;;;;;;5043354;28;20059;-57
2022/03/17 07:14:30;;;;;;;11.23;5.30;;;7.90;99.90;;;;;;5043112;28;20116;-57
2022/03/17 07:16:57;;;;;;;11.75;4.32;;;7.90;99.90;;;;;;5039944;28;20148;-57
2022/03/17 07:19:23;;;;;;;12.05;4.05;;;7.90;99.90;;;;;;5029887;28;20575;-58
2022/03/17 07:21:51;;;;;;;11.95;3.92;;;8.00;99.90;;;;;;5039723;28;20055;-57
2022/03/17 07:24:18;;;;;;;13.10;4.07;;;8.00;99.90;;;;;;5041408;28;20550;-58
2022/03/17 07:26:44;;;;;;;11.07;3.47;;;8.00;99.90;;;;;;5041355;28;20048;-57
2022/03/17 07:29:11;;;;;;;11.73;3.30;;;8.00;99.90;;;;;;5040911;28;20408;-58
2022/03/17 07:31:38;;;;;;;12.60;3.35;;;8.00;99.90;;;;;;5041901;28;20095;-57
2022/03/17 07:34:05;;;;;;;14.85;3.92;;;8.00;99.90;;;;;;5033268;28;20071;-58
2022/03/17 07:36:32;;;;;;;13.20;4.05;;;8.00;99.90;;;;;;5038804;28;20064;-57
2022/03/17 07:39:01;;;;;;;12.25;3.65;;;8.00;99.90;;;;;;5056296;28;20053;-58
2022/03/17 07:41:27;;;;;;;13.27;3.60;;;8.00;99.90;;;;;;5041854;28;20037;-57
2022/03/17 07:43:53;;;;;;;11.52;3.35;;;7.90;99.90;;;;;;5040170;28;20063;-56
2022/03/17 07:46:52;;;;;;;9.13;2.42;;;7.90;99.90;;;;;;5027280;28;20499;-58
2022/03/17 07:49:31;;;;;;;10.55;3.03;;;7.90;99.90;;;;;;5021526;28;20077;-58
2022/03/17 07:51:57;;;;;;;12.20;2.55;;;7.90;99.90;;;;;;5039716;28;20111;-58
2022/03/17 07:54:23;;;;;;;10.55;2.30;;;7.90;99.90;;;;;;5017833;28;20045;-57
2022/03/17 07:56:50;;;;;;;16.38;2.75;;;7.90;99.90;;;;;;5029914;28;20568;-58
2022/03/17 07:59:17;;;;;;;10.88;2.25;;;8.00;99.90;;;;;;5020056;28;20515;-57
2022/03/17 08:01:43;;;;;;;8.77;2.15;;;8.00;99.90;;;;;;5040513;28;20083;-57
2022/03/17 08:04:09;;;;;;;11.85;2.33;;;8.00;99.90;;;;;;5036983;28;20049;-57
2022/03/17 08:06:36;;;;;;;11.68;2.05;;;8.00;99.90;;;;;;5040169;28;20071;-57
2022/03/17 08:09:03;;;;;;;9.50;2.80;;;7.90;99.90;;;;;;5039270;28;20598;-57
2022/03/17 08:11:29;;;;;;;12.20;3.65;;;7.90;99.90;;;;;;5037420;28;20080;-57
2022/03/17 08:13:55;;;;;;;12.25;2.78;;;7.90;99.90;;;;;;5007309;28;20392;-58
2022/03/17 08:16:21;;;;;;;13.57;2.45;;;7.90;99.90;;;;;;5023597;28;20041;-57
2022/03/17 08:18:49;;;;;;;12.98;2.50;;;7.90;99.90;;;;;;5042367;28;20053;-57
2022/03/17 08:21:16;;;;;;;13.85;2.72;;;7.90;99.90;;;;;;5056856;28;20582;-57
2022/03/17 08:23:43;;;;;;;14.13;3.00;;;7.90;99.90;;;;;;5023224;28;20052;-57
2022/03/17 08:26:09;;;;;;;12.02;2.38;;;7.90;99.90;;;;;;5041307;28;20083;-57
2022/03/17 08:28:35;;;;;;;14.43;2.63;;;7.90;99.90;;;;;;5036026;28;20052;-57
2022/03/17 08:31:02;;;;;;;15.63;2.50;;;7.90;99.90;;;;;;5023623;28;20082;-57
2022/03/17 08:33:28;;;;;;;17.02;3.13;;;7.90;99.90;;;;;;5039769;28;20052;-57
2022/03/17 08:35:54;;;;;;;12.95;2.35;;;7.80;99.90;;;;;;5023353;28;20512;-57
2022/03/17 08:38:20;;;;;;;15.25;3.08;;;7.80;99.90;;;;;;5041454;28;20048;-57
2022/03/17 08:40:47;;;;;;;15.93;2.80;;;7.90;99.90;;;;;;5036555;28;20402;-57
2022/03/17 08:43:14;;;;;;;18.77;3.53;;;7.90;99.90;;;;;;5040692;28;20396;-57
2022/03/17 08:51:11;;;;;;;13.27;2.92;;;8.00;99.90;;;;;;5041717;28;20506;-57
2022/03/17 08:53:37;;;;;;;13.63;2.88;;;8.00;99.90;;;;;;5038639;28;20475;-57
2022/03/17 08:56:05;;;;;;;11.48;2.72;;;8.10;99.90;;;;;;5017641;28;20111;-57
2022/03/17 08:58:31;;;;;;;22.27;2.88;;;8.00;99.90;;;;;;5019022;28;20045;-58
2022/03/17 09:01:00;;;;;;;15.18;2.65;;;8.00;99.90;;;;;;5040593;28;20449;-57
2022/03/17 09:03:26;;;;;;;15.85;3.03;;;8.00;99.90;;;;;;5043168;28;20456;-59
2022/03/17 09:05:52;;;;;;;11.98;2.95;;;8.00;99.90;;;;;;5039363;28;20049;-57
2022/03/17 09:08:19;;;;;;;9.40;2.20;;;8.00;99.90;;;;;;5041206;28;20066;-57
2022/03/17 09:10:46;;;;;;;12.20;2.92;;;8.00;99.90;;;;;;5040228;28;20076;-57
2022/03/17 09:13:13;;;;;;;15.02;2.45;;;8.00;99.90;;;;;;5044490;28;20056;-57
2022/03/17 09:15:40;;;;;;;11.07;2.75;;;8.00;99.90;;;;;;5040105;28;20053;-57
2022/03/17 09:18:10;;;;;;;16.02;2.70;;;8.20;99.90;;;;;;5042552;28;20045;-57
2022/03/17 09:20:38;;;;;;;16.42;3.15;;;8.30;99.90;;;;;;5040909;28;20091;-56
2022/03/17 09:23:04;;;;;;;11.45;2.53;;;8.40;99.90;;;;;;5044354;28;20439;-56
2022/03/17 09:25:33;;;;;;;9.48;2.58;;;8.50;99.90;;;;;;5045310;28;20043;-58
2022/03/17 09:28:00;;;;;;;14.60;2.90;;;8.60;99.90;;;;;;5044886;28;20102;-58
2022/03/17 09:30:26;;;;;;;19.13;3.40;;;8.60;99.90;;;;;;5060277;28;20056;-57
2022/03/17 09:32:54;;;;;;;17.60;3.92;;;8.60;99.90;;;;;;5043744;28;20063;-57
2022/03/17 09:35:22;;;;;;;11.35;3.67;;;8.50;99.90;;;;;;5043951;28;20044;-57
2022/03/17 09:37:48;;;;;;;14.75;2.28;;;8.70;99.90;;;;;;5042806;28;20506;-57
2022/03/17 09:40:14;;;;;;;9.52;1.85;;;8.60;99.90;;;;;;5042332;28;20577;-57
2022/03/17 09:42:40;;;;;;;10.93;2.50;;;8.60;99.90;;;;;;5044581;28;20049;-57
2022/03/17 09:45:09;;;;;;;13.85;2.95;;;8.60;99.90;;;;;;5041991;28;20693;-57
2022/03/17 09:47:40;;;;;;;12.30;2.47;;;8.60;99.90;;;;;;5042704;28;20083;-57
2022/03/17 09:50:09;;;;;;;9.95;2.33;;;8.70;99.90;;;;;;5044409;28;20528;-57
2022/03/17 09:52:37;;;;;;;14.98;2.58;;;8.70;99.90;;;;;;5044015;28;20045;-58
2022/03/17 09:55:04;;;;;;;9.85;2.25;;;8.70;99.90;;;;;;5043739;28;20049;-57
2022/03/17 09:57:31;;;;;;;14.60;2.90;;;8.70;99.90;;;;;;5047751;28;20044;-57
2022/03/17 09:59:58;;;;;;;11.30;2.45;;;8.80;99.90;;;;;;5027169;28;20389;-57
2022/03/17 10:02:25;;;;;;;17.98;3.20;;;8.80;99.90;;;;;;5044781;28;20462;-57
2022/03/17 10:04:52;;;;;;;10.48;2.30;;;8.70;99.90;;;;;;5061115;28;20076;-57
2022/03/17 10:07:23;;;;;;;16.13;2.97;;;8.70;99.90;;;;;;5026537;28;20040;-57
2022/03/17 10:09:50;;;;;;;10.95;2.47;;;8.70;99.90;;;;;;5025243;28;20045;-57
2022/03/17 10:12:20;;;;;;;17.10;3.35;;;8.80;99.90;;;;;;5045404;28;20044;-57
2022/03/17 10:14:48;;;;;;;15.23;2.42;;;8.90;99.90;;;;;;5047735;28;20120;-57
2022/03/17 10:17:41;;;;;;;17.70;2.80;;;9.00;99.90;;;;;;5025964;28;20499;-57
2022/03/17 10:20:28;;;;;;;13.98;2.72;;;9.00;99.90;;;;;;5043367;28;20049;-57
2022/03/17 10:22:57;;;;;;;14.60;2.50;;;9.40;99.90;;;;;;5023988;28;20436;-57
2022/03/17 10:25:29;;;;;;;10.15;2.58;;;9.90;99.90;;;;;;5041798;28;20048;-57
2022/03/17 10:27:57;;;;;;;12.80;2.28;;;10.10;99.90;;;;;;5042121;28;20141;-57
2022/03/17 10:30:34;;;;;;;11.70;2.30;;;10.80;99.90;;;;;;5039350;28;20103;-57
2022/03/17 10:33:15;;;;;;;13.52;2.63;;;10.80;99.90;;;;;;5042428;28;20552;-57
2022/03/17 10:35:49;;;;;;;13.90;2.72;;;10.60;99.90;;;;;;5058547;28;20084;-58
2022/03/17 10:38:22;;;;;;;13.32;2.40;;;11.80;99.90;;;;;;5042691;28;20140;-58
2022/03/17 10:41:07;;;;;;;12.43;3.03;;;12.40;99.90;;;;;;5024467;28;20040;-58
2022/03/17 10:43:34;;;;;;;7.78;1.65;;;13.00;99.90;;;;;;5039825;28;20073;-58
2022/03/17 10:46:22;;;;;;;11.07;2.47;;;13.20;99.90;;;;;;5058419;28;20052;-57
2022/03/17 10:48:57;;;;;;;9.57;2.00;;;12.80;99.90;;;;;;5041175;28;20044;-58
2022/03/17 10:51:43;;;;;;;7.43;2.67;;;12.50;99.90;;;;;;5042722;28;20070;-58
2022/03/17 10:54:15;;;;;;;9.98;1.77;;;12.60;99.90;;;;;;5042077;28;20041;-58
2022/03/17 10:56:42;;;;;;;;;;;13.30;99.90;;;;;;5024077;28;20048;-58
2022/03/17 10:59:08;;;;;;;10.70;2.38;;;13.20;99.90;;;;;;5042933;28;19925;-58
2022/03/17 11:01:39;;;;;;;12.07;2.15;;;13.50;99.90;;;;;;5041967;28;20045;-58
2022/03/17 11:04:06;;;;;;;7.65;1.67;;;14.10;99.90;;;;;;5058319;28;20048;-58
2022/03/17 11:06:33;;;;;;;7.95;2.15;;;14.70;99.90;;;;;;5038350;28;20076;-58
2022/03/17 11:09:02;;;;;;;7.80;1.88;;;15.40;99.90;;;;;;5041886;28;20490;-59
2022/03/17 11:11:29;;;;;;;12.13;1.90;;;15.40;66.20;;;;;;5041618;28;20052;-58
2022/03/17 11:13:57;;;;;;;8.45;1.75;;;14.90;61.80;;;;;;5043045;28;20455;-58
2022/03/17 11:16:40;;;;;;;8.60;1.80;;;14.40;72.20;;;;;;5039876;28;20541;-58
2022/03/17 11:19:12;;;;;;;10.48;2.33;;;14.30;65.50;;;;;;5038445;28;20049;-58
2022/03/17 11:21:44;;;;;;;11.30;2.35;;;13.80;71.70;;;;;;5040843;28;20182;-58
2022/03/17 11:24:21;;;;;;;7.60;2.00;;;13.60;77.60;;;;;;5043612;28;20043;-58
2022/03/17 11:26:48;;;;;;;8.55;2.20;;;13.70;66.80;;;;;;5043922;28;20056;-58
2022/03/17 11:29:18;;;;;;;9.45;1.85;;;13.80;64.40;;;;;;5039317;28;20132;-58
2022/03/17 11:32:01;;;;;;;9.13;1.92;;;14.60;61.30;;;;;;5058093;28;20083;-58
2022/03/17 11:34:46;;;;;;;11.52;2.42;;;14.80;58.60;;;;;;5063365;28;20389;-59
2022/03/17 11:37:26;;;;;;;8.40;1.90;;;15.70;58.10;;;;;;5047743;28;20056;-58
2022/03/17 11:40:06;;;;;;;8.90;2.28;;;15.70;55.30;;;;;;5047904;28;20052;-59
2022/03/17 11:43:04;;;;;;;10.77;2.85;;;15.00;55.30;;;;;;5047144;28;20087;-60
2022/03/17 11:45:31;;;;;;;9.25;2.22;;;15.80;55.70;;;;;;5048339;28;20063;-59
2022/03/17 11:47:59;;;;;;;10.32;2.05;;;16.10;55.60;;;;;;5054614;28;20456;-59
2022/03/17 11:50:40;;;;;;;9.75;2.00;;;16.50;53.50;;;;;;5048995;28;20716;-59
2022/03/17 11:53:20;;;;;;;6.90;1.90;;;15.60;52.50;;;;;;5044397;28;20309;-59
2022/03/17 11:55:46;;;;;;;10.60;2.75;;;15.80;52.20;;;;;;5028143;28;20037;-59
2022/03/17 11:58:43;;;;;;;10.80;2.45;;;16.20;54.30;;;;;;5043016;28;20058;-58
2022/03/17 12:01:30;;;;;;;7.30;2.03;;;16.50;51.90;;;;;;5043481;28;20040;-58
2022/03/17 12:03:58;;;;;;;9.00;2.20;;;16.70;52.20;;;;;;5055337;28;20102;-58
2022/03/17 12:06:26;;;;;;;9.18;2.55;;;16.30;51.10;;;;;;5047640;28;20478;-57
2022/03/17 12:09:00;;;;;;;9.85;2.72;;;16.10;52.90;;;;;;5042378;28;20050;-58
2022/03/17 12:11:38;;;;;;;6.63;2.35;;;14.60;54.90;;;;;;5027968;28;20106;-57
2022/03/17 12:14:22;;;;;;;9.00;2.15;;;14.40;54.70;;;;;;5051810;28;20049;-58
2022/03/17 12:16:51;;;;;;;9.70;2.38;;;14.80;53.60;;;;;;5047314;28;20079;-59
2022/03/17 12:19:31;;;;;;;7.45;1.85;;;15.50;52.60;;;;;;5040489;28;20053;-59
2022/03/17 12:21:57;;;;;;;11.25;2.72;;;16.00;51.90;;;;;;5041838;28;20578;-59
2022/03/17 12:24:39;;;;;;;13.48;2.95;;;16.40;52.10;;;;;;5039509;28;20045;-59
2022/03/17 12:27:12;;;;;;;8.82;2.78;;;15.50;50.90;;;;;;5037322;28;20049;-57
2022/03/17 12:29:41;;;;;;;8.63;2.10;;;15.30;52.20;;;;;;5035589;28;20107;-59
2022/03/17 12:32:10;;;;;;;8.18;1.70;;;15.80;52.20;;;;;;5033437;28;20048;-59
2022/03/17 12:34:38;;;;;;;8.30;1.88;;;15.80;52.90;;;;;;5037942;28;20080;-58
2022/03/17 12:37:06;;;;;;;9.85;2.22;;;16.00;52.30;;;;;;5054213;28;20033;-57
2022/03/17 12:39:34;;;;;;;10.73;2.60;;;16.20;50.50;;;;;;5037634;28;20063;-61
2022/03/17 12:42:01;;;;;;;9.68;2.85;;;15.70;51.10;;;;;;5039248;28;20049;-56
2022/03/17 12:44:28;;;;;;;8.52;2.10;;;15.10;51.90;;;;;;5026679;28;20045;-57
2022/03/17 12:46:55;;;;;;;10.20;2.42;;;15.80;52.30;;;;;;5038260;28;20511;-62
2022/03/17 12:49:22;;;;;;;7.20;1.65;;;17.00;49.90;;;;;;5055285;28;20417;-62
2022/03/17 12:51:51;;;;;;;10.20;2.22;;;17.50;48.10;;;;;;5040595;28;20045;-56
2022/03/17 12:54:17;;;;;;;7.53;1.88;;;17.70;48.30;;;;;;5043060;28;20052;-57
2022/03/17 12:56:53;;;;;;;7.32;1.73;;;18.10;48.60;;;;;;5041655;28;20048;-57
2022/03/17 12:59:20;;;;;;;7.97;1.75;;;18.20;47.30;;;;;;5041600;28;20508;-57
2022/03/17 13:01:47;;;;;;;7.57;1.95;;;17.20;47.90;;;;;;5039158;28;20056;-57
2022/03/17 13:04:14;;;;;;;7.40;2.00;;;16.70;47.20;;;;;;5060082;28;20440;-59